createdAt,value
2018-06-14T00:05:02.732Z,101084.00
2018-06-14T00:10:06.514Z,101089.00
2018-06-14T00:15:10.934Z,101095.00
2018-06-14T00:20:14.700Z,101086.00
2018-06-14T00:25:18.486Z,101081.00
2018-06-14T00:30:22.284Z,101073.00
2018-06-14T00:35:26.289Z,101074.00
2018-06-14T00:40:30.075Z,101084.00
2018-06-14T00:45:33.855Z,101083.00
2018-06-14T00:50:37.922Z,101083.00
2018-06-14T00:55:41.728Z,101086.00
2018-06-14T01:00:45.531Z,101078.00
2018-06-14T01:05:49.606Z,101083.00
2018-06-14T01:10:53.435Z,101079.00
2018-06-14T01:15:57.502Z,101075.00
2018-06-14T01:21:01.319Z,101074.00
2018-06-14T01:26:05.196Z,101066.00
2018-06-14T01:31:08.995Z,101069.00
2018-06-14T01:36:12.858Z,101063.00
2018-06-14T01:41:16.674Z,101062.00
2018-06-14T01:46:20.885Z,101057.00
2018-06-14T01:51:24.717Z,101058.00
2018-06-14T01:56:28.729Z,101058.00
2018-06-14T02:01:32.724Z,101055.00
2018-06-14T02:06:36.527Z,101060.00
2018-06-14T02:11:40.548Z,101049.00
2018-06-14T02:16:44.332Z,101055.00
2018-06-14T02:21:48.344Z,101054.00
2018-06-14T02:26:52.197Z,101063.00
2018-06-14T02:31:56.212Z,101068.00
2018-06-14T02:37:00.050Z,101067.00
2018-06-14T02:42:03.825Z,101066.00
2018-06-14T02:47:07.598Z,101064.00
2018-06-14T02:52:11.404Z,101064.00
2018-06-14T02:57:15.203Z,101063.00
2018-06-14T03:02:19.254Z,101062.00
2018-06-14T03:07:28.433Z,101058.00
2018-06-14T03:12:32.264Z,101055.00
2018-06-14T03:17:36.068Z,101055.00
2018-06-14T03:22:40.146Z,101049.00
2018-06-14T03:27:43.958Z,101038.00
2018-06-14T03:32:48.890Z,101041.00
2018-06-14T03:37:52.714Z,101031.00
2018-06-14T03:42:56.759Z,101024.00
2018-06-14T03:48:00.813Z,101026.00
2018-06-14T03:53:04.639Z,101026.00
2018-06-14T03:58:08.810Z,101030.00
2018-06-14T04:03:13.002Z,101032.00
2018-06-14T04:08:16.792Z,101038.00
2018-06-14T04:13:20.863Z,101036.00
2018-06-14T04:18:24.654Z,101035.00
2018-06-14T04:23:28.542Z,101028.00
2018-06-14T04:28:32.302Z,101033.00
2018-06-14T04:33:36.106Z,101032.00
2018-06-14T04:38:39.978Z,101032.00
2018-06-14T04:43:43.814Z,101038.00
2018-06-14T04:48:47.597Z,101037.00
2018-06-14T04:53:51.415Z,101040.00
2018-06-14T04:58:55.446Z,101037.00
2018-06-14T05:03:59.274Z,101034.00
2018-06-14T05:09:03.501Z,101041.00
2018-06-14T05:14:07.305Z,101032.00
2018-06-14T05:19:11.173Z,101030.00
2018-06-14T05:24:14.975Z,101027.00
2018-06-14T05:29:18.794Z,101029.00
2018-06-14T05:34:22.811Z,101038.00
2018-06-14T05:39:26.682Z,101038.00
2018-06-14T05:44:30.656Z,101029.00
2018-06-14T05:49:34.455Z,101031.00
2018-06-14T05:54:38.262Z,101033.00
2018-06-14T05:59:42.046Z,101025.00
2018-06-14T06:04:46.095Z,101024.00
2018-06-14T06:09:49.881Z,101017.00
2018-06-14T06:14:53.670Z,101011.00
2018-06-14T06:19:57.466Z,101006.00
2018-06-14T06:25:01.509Z,101004.00
2018-06-14T06:30:05.738Z,101001.00
2018-06-14T06:35:09.522Z,101003.00
2018-06-14T06:40:13.310Z,100997.00
2018-06-14T06:45:17.406Z,101000.00
2018-06-14T06:50:21.209Z,100998.00
2018-06-14T06:55:25.239Z,101001.00
2018-06-14T07:00:29.267Z,101001.00
2018-06-14T07:05:33.347Z,100991.00
2018-06-14T07:10:37.146Z,100991.00
2018-06-14T07:15:40.965Z,100986.00
2018-06-14T07:20:45.007Z,100993.00
2018-06-14T07:25:49.038Z,100992.00
2018-06-14T07:30:53.115Z,100984.00
2018-06-14T07:35:56.902Z,100981.00
2018-06-14T07:41:00.706Z,100968.00
2018-06-14T07:46:04.487Z,100974.00
2018-06-14T07:51:08.630Z,100975.00
2018-06-14T07:56:12.428Z,100971.00
2018-06-14T08:01:16.464Z,100963.00
2018-06-14T08:06:20.292Z,100958.00
2018-06-14T08:11:24.099Z,100959.00
2018-06-14T08:16:27.926Z,100965.00
2018-06-14T08:21:31.718Z,100961.00
2018-06-14T08:26:35.747Z,100974.00
2018-06-14T08:31:39.542Z,100963.00
2018-06-14T08:36:43.329Z,100964.00
2018-06-14T08:41:47.130Z,100945.00
2018-06-14T08:46:50.926Z,100964.00
2018-06-14T08:51:54.971Z,100933.00
2018-06-14T08:56:59.095Z,100946.00
2018-06-14T09:02:02.894Z,100950.00
2018-06-14T09:07:06.697Z,100948.00
2018-06-14T09:12:10.489Z,100925.00
2018-06-14T09:17:14.271Z,100929.00
2018-06-14T09:22:18.155Z,100932.00
2018-06-14T09:27:21.983Z,100931.00
2018-06-14T09:32:26.030Z,100932.00
2018-06-14T09:37:29.812Z,100939.00
2018-06-14T09:42:33.617Z,100925.00
2018-06-14T09:47:37.401Z,100943.00
2018-06-14T09:52:41.221Z,100919.00
2018-06-14T09:57:45.243Z,100927.00
2018-06-14T10:02:49.039Z,100930.00
2018-06-14T10:07:52.842Z,100923.00
2018-06-14T10:12:56.635Z,100916.00
2018-06-14T10:18:00.675Z,100909.00
2018-06-14T10:23:04.716Z,100918.00
2018-06-14T10:28:08.758Z,100917.00
2018-06-14T10:33:13.135Z,100914.00
2018-06-14T10:38:16.928Z,100912.00
2018-06-14T10:43:20.970Z,100910.00
2018-06-14T10:48:25.019Z,100901.00
2018-06-14T10:53:28.806Z,100905.00
2018-06-14T10:58:32.842Z,100906.00
2018-06-14T11:03:36.654Z,100902.00
2018-06-14T11:08:40.709Z,100896.00
2018-06-14T11:13:44.728Z,100889.00
2018-06-14T11:18:48.763Z,100881.00
2018-06-14T11:23:52.810Z,100880.00
2018-06-14T11:28:56.638Z,100882.00
2018-06-14T11:34:00.684Z,100869.00
2018-06-14T11:39:06.735Z,100871.00
2018-06-14T11:44:10.786Z,100858.00
2018-06-14T11:49:14.618Z,100867.00
2018-06-14T11:54:18.882Z,100858.00
2018-06-14T11:59:22.613Z,100848.00
2018-06-14T12:04:26.414Z,100836.00
2018-06-14T12:09:30.446Z,100837.00
2018-06-14T12:14:34.494Z,100829.00
2018-06-14T12:19:38.506Z,100830.00
2018-06-14T12:24:42.559Z,100830.00
2018-06-14T12:29:46.594Z,100824.00
2018-06-14T12:34:50.421Z,100815.00
2018-06-14T12:39:54.483Z,100807.00
2018-06-14T12:44:58.580Z,100805.00
2018-06-14T12:50:02.372Z,100800.00
2018-06-14T12:55:06.472Z,100786.00
2018-06-14T13:00:10.498Z,100786.00
2018-06-14T13:05:14.294Z,100780.00
2018-06-14T13:10:18.083Z,100781.00
2018-06-14T13:15:22.099Z,100777.00
2018-06-14T13:20:25.897Z,100783.00
2018-06-14T13:25:30.007Z,100774.00
2018-06-14T13:30:33.989Z,100772.00
2018-06-14T13:35:37.781Z,100774.00
2018-06-14T13:40:41.578Z,100768.00
2018-06-14T13:45:45.599Z,100770.00
2018-06-14T13:50:50.202Z,100764.00
2018-06-14T13:55:54.273Z,100770.00
2018-06-14T14:00:58.371Z,100775.00
2018-06-14T14:06:02.356Z,100767.00
2018-06-14T14:11:06.389Z,100768.00
2018-06-14T14:16:10.175Z,100767.00
2018-06-14T14:21:14.206Z,100764.00
2018-06-14T14:26:18.005Z,100759.00
2018-06-14T14:31:22.027Z,100764.00
2018-06-14T14:36:26.068Z,100764.00
2018-06-14T14:41:30.103Z,100759.00
2018-06-14T14:46:34.042Z,100764.00
2018-06-14T14:51:37.821Z,100768.00
2018-06-14T14:56:41.619Z,100769.00
2018-06-14T15:01:45.406Z,100765.00
2018-06-14T15:06:49.236Z,100763.00
2018-06-14T15:11:53.291Z,100762.00
2018-06-14T15:16:57.331Z,100763.00
2018-06-14T15:22:01.356Z,100760.00
2018-06-14T15:27:05.180Z,100757.00
2018-06-14T15:32:09.206Z,100762.00
2018-06-14T15:37:13.073Z,100763.00
2018-06-14T15:42:16.818Z,100766.00
2018-06-14T15:47:20.847Z,100769.00
2018-06-14T15:52:24.925Z,100777.00
2018-06-14T15:57:28.979Z,100773.00
2018-06-14T16:02:32.788Z,100774.00
2018-06-14T16:07:36.570Z,100778.00
2018-06-14T16:12:40.492Z,100789.00
2018-06-14T16:17:44.293Z,100799.00
2018-06-14T16:22:48.090Z,100809.00
2018-06-14T16:27:51.918Z,100827.00
2018-06-14T16:32:55.790Z,100850.00
2018-06-14T16:37:59.851Z,100852.00
2018-06-14T16:43:10.447Z,100853.00
2018-06-14T16:48:14.242Z,100857.00
2018-06-14T16:53:18.063Z,100866.00
2018-06-14T16:58:22.102Z,100868.00
2018-06-14T17:03:26.134Z,100878.00
2018-06-14T17:08:30.180Z,100892.00
2018-06-14T17:13:33.997Z,100891.00
2018-06-14T17:18:37.766Z,100895.00
2018-06-14T17:23:41.669Z,100893.00
2018-06-14T17:28:45.659Z,100898.00
2018-06-14T17:33:49.530Z,100906.00
2018-06-14T17:38:53.326Z,100913.00
2018-06-14T17:43:57.102Z,100919.00
2018-06-14T17:49:01.164Z,100924.00
2018-06-14T17:54:04.986Z,100928.00
2018-06-14T17:59:15.117Z,100935.00
2018-06-14T18:04:18.922Z,100933.00
2018-06-14T18:09:22.813Z,100936.00
2018-06-14T18:14:26.613Z,100943.00
2018-06-14T18:19:30.423Z,100939.00
2018-06-14T18:24:34.457Z,100933.00
2018-06-14T18:29:38.280Z,100932.00
2018-06-14T18:34:42.082Z,100935.00
2018-06-14T18:39:45.890Z,100931.00
2018-06-14T18:44:49.682Z,100927.00
2018-06-14T18:49:53.478Z,100928.00
2018-06-14T18:54:57.266Z,100934.00
2018-06-14T19:00:01.308Z,100937.00
2018-06-14T19:05:05.094Z,100929.00
2018-06-14T19:10:08.902Z,100931.00
2018-06-14T19:15:12.714Z,100927.00
2018-06-14T19:20:17.475Z,100927.00
2018-06-14T19:25:21.261Z,100931.00
2018-06-14T19:30:25.079Z,100939.00
2018-06-14T19:35:28.841Z,100939.00
2018-06-14T19:40:32.635Z,100946.00
2018-06-14T19:45:36.434Z,100952.00
2018-06-14T19:50:40.338Z,100960.00
2018-06-14T19:55:44.150Z,100962.00
2018-06-14T20:00:48.339Z,100966.00
2018-06-14T20:05:52.166Z,100974.00
2018-06-14T20:10:56.053Z,100973.00
2018-06-14T20:16:00.108Z,100983.00
2018-06-14T20:21:04.161Z,100988.00
2018-06-14T20:26:07.962Z,100989.00
2018-06-14T20:31:12.007Z,100988.00
2018-06-14T20:36:16.274Z,100990.00
2018-06-14T20:41:20.338Z,100991.00
2018-06-14T20:46:24.146Z,100992.00
2018-06-14T20:51:27.954Z,100990.00
2018-06-14T20:56:31.738Z,100993.00
2018-06-14T21:01:35.538Z,100991.00
2018-06-14T21:06:39.318Z,100992.00
2018-06-14T21:11:43.398Z,100995.00
2018-06-14T21:16:47.190Z,100999.00
2018-06-14T21:21:51.273Z,101001.00
2018-06-14T21:26:55.310Z,101001.00
2018-06-14T21:31:59.098Z,101013.00
2018-06-14T21:37:02.895Z,101007.00
2018-06-14T21:42:07.150Z,100999.00
2018-06-14T21:47:10.933Z,101001.00
2018-06-14T21:52:14.971Z,100997.00
2018-06-14T21:57:19.005Z,101002.00
2018-06-14T22:02:22.794Z,101003.00
2018-06-14T22:07:26.590Z,101015.00
2018-06-14T22:12:30.382Z,101018.00
2018-06-14T22:17:34.200Z,101013.00
2018-06-14T22:22:37.977Z,101018.00
2018-06-14T22:27:42.012Z,101020.00
2018-06-14T22:32:45.885Z,101023.00
2018-06-14T22:37:49.674Z,101024.00
2018-06-14T22:42:53.542Z,101025.00
2018-06-14T22:47:57.566Z,101014.00
2018-06-14T22:53:04.062Z,101005.00
2018-06-14T22:58:07.859Z,101001.00
2018-06-14T23:03:11.669Z,100999.00
2018-06-14T23:08:15.711Z,100995.00
2018-06-14T23:13:19.782Z,101001.00
2018-06-14T23:18:23.819Z,100994.00
2018-06-14T23:23:27.695Z,100992.00
2018-06-14T23:28:31.738Z,100989.00
2018-06-14T23:33:35.542Z,100987.00
2018-06-14T23:38:39.588Z,100981.00
2018-06-14T23:43:43.398Z,100985.00
2018-06-14T23:48:47.396Z,100981.00
2018-06-14T23:53:51.149Z,100991.00
2018-06-14T23:58:55.142Z,100992.00
